Time;durP1;ratioP1;P1;durP2;ratioP2;P2;SDS_P1;SDS_P2;PMS_P1;PMS_P2;Temp;Humidity;BMP_temperature;BMP_pressure;BME280_temperature;BME280_humidity;BME280_pressure;Samples;Min_cycle;Max_cycle;Signal;HPM_P1;HPM_P2
2024/03/07 00:00:18;;;;;;;;;;;;;;;20.27;46.27;102162.91;2065676;28;6227;-74
2024/03/07 00:01:21;;;;;;;;;;;;;;;20.28;46.43;102157.91;2068439;28;2185;-74
2024/03/07 00:02:23;;;;;;;;;;;;;;;20.28;46.43;102157.91;2069652;28;2235;-74
2024/03/07 00:03:25;;;;;;;;;;;;;;;20.28;46.21;102163.66;2068924;28;1620;-74
2024/03/07 00:04:26;;;;;;;;;;;;;;;20.28;46.11;102157.91;2065843;28;2484;-74
2024/03/07 00:05:27;;;;;;;;;;;;;;;20.28;46.26;102157.91;2068735;28;2505;-74
2024/03/07 00:06:29;;;;;;;;;;;;;;;20.28;46.34;102157.91;2069774;28;1655;-75
2024/03/07 00:07:30;;;;;;;;;;;;;;;20.25;46.24;102162.03;2068256;28;2142;-74
2024/03/07 00:08:32;;;;;;;;;;;;;;;20.27;46.39;102162.16;2069597;28;1636;-74
2024/03/07 00:09:34;;;;;;;;;;;;;;;20.26;46.26;102164.28;2067767;28;2292;-74
2024/03/07 00:10:36;;;;;;;;;;;;;;;20.26;46.39;102155.63;2068491;28;2303;-74
2024/03/07 00:11:38;;;;;;;;;;;;;;;20.26;46.28;102161.41;2069412;28;2131;-74
2024/03/07 00:12:42;;;;;;;;;;;;;;;20.25;46.29;102153.41;2067592;28;1880;-74
2024/03/07 00:13:44;;;;;;;;;;;;;;;20.26;46.18;102157.78;2068998;28;2244;-74
2024/03/07 00:14:45;;;;;;;;;;;;;;;20.26;46.42;102161.41;2068859;28;2511;-74
2024/03/07 00:15:47;;;;;;;;;;;;;;;20.25;46.36;102154.16;2068227;28;2196;-74
2024/03/07 00:16:48;;;;;;;;;;;;;;;20.26;46.18;102157.78;2069332;28;1632;-74
2024/03/07 00:17:50;;;;;;;;;;;;;;;20.25;46.26;102157.03;2069483;28;2568;-74
2024/03/07 00:18:51;;;;;;;;;;;;;;;20.25;46.20;102156.28;2069007;28;1746;-74
2024/03/07 00:19:53;;;;;;;;;;;;;;;20.26;46.17;102163.53;2067376;28;2142;-74
2024/03/07 00:20:54;;;;;;;;;;;;;;;20.26;46.16;102160.66;2068907;28;2190;-75
2024/03/07 00:21:56;;;;;;;;;;;;;;;20.25;46.25;102159.16;2069050;28;1977;-74
2024/03/07 00:22:58;;;;;;;;;;;;;;;20.24;46.26;102152.63;2067829;28;2392;-74
2024/03/07 00:24:00;;;;;;;;;;;;;;;20.23;46.24;102159.00;2069516;28;2145;-74
2024/03/07 00:25:04;;;;;;;;;;;;;;;20.23;46.15;102150.38;2068511;28;2544;-74
2024/03/07 00:26:06;;;;;;;;;;;;;;;20.24;46.27;102151.88;2065565;28;2639;-74
2024/03/07 00:27:07;;;;;;;;;;;;;;;20.24;46.23;102157.63;2069761;28;2036;-74
2024/03/07 00:28:08;;;;;;;;;;;;;;;20.23;46.26;102156.88;2069202;28;2036;-74
2024/03/07 00:29:10;;;;;;;;;;;;;;;20.22;46.34;102160.38;2070543;28;2411;-74
2024/03/07 00:30:13;;;;;;;;;;;;;;;20.22;46.30;102148.88;2066974;28;6169;-74
2024/03/07 00:31:14;;;;;;;;;;;;;;;20.23;46.26;102156.13;2069896;28;2584;-74
2024/03/07 00:32:18;;;;;;;;;;;;;;;20.22;46.19;102154.63;2069575;28;2491;-74
2024/03/07 00:33:21;;;;;;;;;;;;;;;20.22;46.25;102154.63;2069434;28;2142;-74
2024/03/07 00:34:23;;;;;;;;;;;;;;;20.22;46.17;102154.63;2068092;28;1902;-74
2024/03/07 00:35:27;;;;;;;;;;;;;;;20.21;46.16;102159.63;2067263;28;2178;-74
2024/03/07 00:36:28;;;;;;;;;;;;;;;20.20;46.27;102151.59;2069720;28;2245;-74
2024/03/07 00:37:30;;;;;;;;;;;;;;;20.20;46.20;102155.25;2069059;28;2312;-74
2024/03/07 00:38:32;;;;;;;;;;;;;;;20.21;46.20;102159.63;2069997;28;1521;-75
2024/03/07 00:39:33;;;;;;;;;;;;;;;20.21;46.36;102159.63;2070115;28;2471;-74
2024/03/07 00:40:35;;;;;;;;;;;;;;;20.20;46.19;102160.22;2068258;28;2512;-74
2024/03/07 00:41:40;;;;;;;;;;;;;;;20.20;46.16;102157.34;2069084;28;1598;-74
2024/03/07 00:42:42;;;;;;;;;;;;;;;20.19;46.18;102150.84;2068095;28;1619;-73
2024/03/07 00:43:44;;;;;;;;;;;;;;;20.20;46.25;102151.59;2069462;28;2130;-74
2024/03/07 00:44:45;;;;;;;;;;;;;;;20.20;46.36;102151.59;2068474;28;2001;-74
2024/03/07 00:45:49;;;;;;;;;;;;;;;20.20;46.38;102157.34;2067754;28;2242;-74
2024/03/07 00:46:52;;;;;;;;;;;;;;;20.19;46.15;102152.97;2068211;28;2406;-74
2024/03/07 00:47:53;;;;;;;;;;;;;;;20.19;46.18;102150.09;2066135;28;2237;-74
2024/03/07 00:48:54;;;;;;;;;;;;;;;20.19;46.13;102153.72;2069097;28;1685;-74
2024/03/07 00:49:56;;;;;;;;;;;;;;;20.19;46.22;102150.09;2067617;28;2083;-74
2024/03/07 00:50:57;;;;;;;;;;;;;;;20.18;46.24;102152.22;2067870;28;2342;-74
2024/03/07 00:52:00;;;;;;;;;;;;;;;20.19;46.19;102153.72;2068158;28;2474;-73
2024/03/07 00:53:02;;;;;;;;;;;;;;;20.19;46.11;102153.72;2070719;28;2145;-74
2024/03/07 00:54:03;;;;;;;;;;;;;;;20.19;46.04;102150.84;2068094;28;1685;-74
2024/03/07 00:55:05;;;;;;;;;;;;;;;20.18;46.13;102155.09;2067933;28;2379;-74
2024/03/07 00:56:06;;;;;;;;;;;;;;;20.18;46.09;102160.09;2067131;28;2473;-74
2024/03/07 00:57:08;;;;;;;;;;;;;;;20.18;46.11;102154.34;2069309;28;2500;-74
2024/03/07 00:58:10;;;;;;;;;;;;;;;20.18;46.16;102155.09;2074866;28;2118;-74
2024/03/07 00:59:11;;;;;;;;;;;;;;;20.19;46.12;102150.09;2076459;28;1585;-74
2024/03/07 01:00:13;;;;;;;;;;;;;;;20.17;46.16;102147.84;2067723;28;6186;-74
2024/03/07 01:01:18;;;;;;;;;;;;;;;20.17;46.14;102152.84;2070614;28;1663;-74
2024/03/07 01:02:20;;;;;;;;;;;;;;;20.18;46.11;102148.59;2069457;28;2596;-75
2024/03/07 01:03:21;;;;;;;;;;;;;;;20.17;46.13;102147.84;2068315;28;2109;-74
2024/03/07 01:04:22;;;;;;;;;;;;;;;20.17;46.11;102147.84;2070572;28;1696;-74
2024/03/07 01:05:24;;;;;;;;;;;;;;;20.17;46.24;102144.22;2068560;28;2485;-74
2024/03/07 01:06:25;;;;;;;;;;;;;;;20.16;46.22;102143.47;2067404;28;2425;-74
2024/03/07 01:07:27;;;;;;;;;;;;;;;20.16;46.18;102145.56;2067697;28;2519;-74
2024/03/07 01:08:32;;;;;;;;;;;;;;;20.14;46.25;102134.69;2070237;28;1669;-74
2024/03/07 01:09:35;;;;;;;;;;;;;;;20.16;46.27;102139.81;2068926;28;2277;-74
2024/03/07 01:10:37;;;;;;;;;;;;;;;20.15;46.05;102133.31;2069357;28;1521;-75
2024/03/07 01:11:38;;;;;;;;;;;;;;;20.16;46.05;102145.56;2068081;28;2169;-75
2024/03/07 01:12:40;;;;;;;;;;;;;;;20.15;45.99;102139.06;2069724;28;2516;-74
2024/03/07 01:13:41;;;;;;;;;;;;;;;20.16;46.02;102142.69;2068806;28;2133;-74
2024/03/07 01:14:43;;;;;;;;;;;;;;;20.16;46.30;102139.81;2068587;28;2564;-74
2024/03/07 01:15:45;;;;;;;;;;;;;;;20.14;46.20;102137.56;2067477;28;2271;-74
2024/03/07 01:16:47;;;;;;;;;;;;;;;20.15;46.15;102141.19;2068254;28;2520;-74
2024/03/07 01:17:48;;;;;;;;;;;;;;;20.15;46.18;102144.06;2068765;28;2354;-74
2024/03/07 01:18:50;;;;;;;;;;;;;;;20.14;46.04;102134.69;2068226;28;1664;-74
2024/03/07 01:19:51;;;;;;;;;;;;;;;20.15;46.06;102138.31;2068858;28;2544;-74
2024/03/07 01:20:53;;;;;;;;;;;;;;;20.14;46.21;102134.69;2067685;28;1782;-74
2024/03/07 01:21:54;;;;;;;;;;;;;;;20.14;46.21;102133.94;2069811;28;1584;-74
2024/03/07 01:22:56;;;;;;;;;;;;;;;20.13;46.19;102136.06;2069715;28;2184;-74
2024/03/07 01:23:59;;;;;;;;;;;;;;;20.15;46.03;102141.19;2069231;28;1700;-74
2024/03/07 01:25:00;;;;;;;;;;;;;;;20.15;46.09;102129.69;2069937;28;2623;-74
2024/03/07 01:26:02;;;;;;;;;;;;;;;20.14;46.06;102131.81;2065659;28;2244;-74
2024/03/07 01:27:03;;;;;;;;;;;;;;;20.15;46.04;102126.81;2067823;28;2496;-74
2024/03/07 01:28:05;;;;;;;;;;;;;;;20.14;46.18;102131.06;2069748;28;1588;-74
2024/03/07 01:29:07;;;;;;;;;;;;;;;20.14;46.06;102133.94;2068897;28;2372;-74
2024/03/07 01:30:09;;;;;;;;;;;;;;;20.14;45.97;102131.81;2067069;28;6073;-74
2024/03/07 01:31:10;;;;;;;;;;;;;;;20.13;46.01;102135.31;2067816;28;2571;-74
2024/03/07 01:32:12;;;;;;;;;;;;;;;20.12;46.10;102139.56;2067135;28;2485;-74
2024/03/07 01:33:13;;;;;;;;;;;;;;;20.12;46.05;102128.06;2068673;28;1636;-74
2024/03/07 01:34:14;;;;;;;;;;;;;;;20.13;46.03;102129.56;2068672;28;1754;-74
2024/03/07 01:35:16;;;;;;;;;;;;;;;20.12;46.01;102134.56;2067986;28;2160;-74
2024/03/07 01:36:18;;;;;;;;;;;;;;;20.12;46.27;102133.81;2067991;28;2256;-74
2024/03/07 01:37:20;;;;;;;;;;;;;;;20.10;46.09;102137.28;2067655;28;2378;-73
2024/03/07 01:38:21;;;;;;;;;;;;;;;20.11;46.10;102129.41;2069512;28;1770;-74
2024/03/07 01:39:23;;;;;;;;;;;;;;;20.11;46.00;102132.28;2069693;28;1843;-74
2024/03/07 01:40:24;;;;;;;;;;;;;;;20.11;46.14;102121.53;2068656;28;1639;-74
2024/03/07 01:41:25;;;;;;;;;;;;;;;20.11;46.02;102126.53;2068219;28;2122;-74
2024/03/07 01:42:27;;;;;;;;;;;;;;;20.11;46.05;102135.16;2068790;28;2236;-74
2024/03/07 01:43:31;;;;;;;;;;;;;;;20.09;46.24;102133.66;2067136;28;2129;-74
2024/03/07 01:44:32;;;;;;;;;;;;;;;20.10;45.99;102131.53;2068054;28;2248;-74
2024/03/07 01:45:37;;;;;;;;;;;;;;;20.08;46.05;102132.16;2066086;28;2266;-74
2024/03/07 01:46:38;;;;;;;;;;;;;;;20.08;45.99;102132.16;2068421;28;2650;-74
2024/03/07 01:47:40;;;;;;;;;;;;;;;20.08;45.96;102125.66;2069682;28;1725;-74
2024/03/07 01:48:41;;;;;;;;;;;;;;;20.06;46.06;102126.25;2067894;28;1664;-74
2024/03/07 01:49:43;;;;;;;;;;;;;;;20.08;45.92;102134.28;2066312;28;1617;-74
2024/03/07 01:50:45;;;;;;;;;;;;;;;20.08;45.98;102132.16;2067766;28;2202;-74
2024/03/07 01:51:48;;;;;;;;;;;;;;;20.08;46.03;102125.66;2065975;28;2219;-74
2024/03/07 01:52:51;;;;;;;;;;;;;;;20.08;46.17;102126.41;2067853;28;2487;-75
2024/03/07 01:53:53;;;;;;;;;;;;;;;20.08;45.90;102135.03;2066500;28;1756;-73
2024/03/07 01:54:54;;;;;;;;;;;;;;;20.08;46.06;102135.03;2068663;28;2061;-74
2024/03/07 01:55:59;;;;;;;;;;;;;;;20.08;46.12;102132.16;2068195;28;2181;-74
2024/03/07 01:57:01;;;;;;;;;;;;;;;20.08;45.94;102132.16;2068349;28;2468;-74
2024/03/07 01:58:04;;;;;;;;;;;;;;;20.08;45.99;102134.28;2068699;28;1659;-74
2024/03/07 01:59:07;;;;;;;;;;;;;;;20.08;46.07;102135.03;2068311;28;1871;-74
2024/03/07 02:00:09;;;;;;;;;;;;;;;20.09;46.00;102130.03;2066179;28;6278;-74
2024/03/07 02:01:11;;;;;;;;;;;;;;;20.08;45.90;102137.16;2071183;28;2584;-74
2024/03/07 02:02:12;;;;;;;;;;;;;;;20.08;45.89;102140.03;2069646;28;2521;-74
2024/03/07 02:03:14;;;;;;;;;;;;;;;20.07;45.92;102136.41;2069781;28;1981;-74
2024/03/07 02:04:15;;;;;;;;;;;;;;;20.07;45.94;102127.78;2068465;28;1874;-74
2024/03/07 02:05:16;;;;;;;;;;;;;;;20.06;46.08;102137.75;2065511;28;2304;-74
2024/03/07 02:06:18;;;;;;;;;;;;;;;20.06;46.10;102125.50;2066455;28;2192;-74
2024/03/07 02:07:19;;;;;;;;;;;;;;;20.06;46.00;102132.00;2068489;28;2096;-74
2024/03/07 02:08:20;;;;;;;;;;;;;;;20.06;45.87;102126.25;2068486;28;1718;-74
2024/03/07 02:09:22;;;;;;;;;;;;;;;20.06;45.94;102131.25;2067129;28;2153;-74
2024/03/07 02:10:23;;;;;;;;;;;;;;;20.04;45.95;102129.03;2068603;28;1732;-74
2024/03/07 02:11:25;;;;;;;;;;;;;;;20.05;45.94;102124.75;2067550;28;2237;-74
2024/03/07 02:12:26;;;;;;;;;;;;;;;20.04;45.91;102129.03;2067132;28;2134;-74
2024/03/07 02:13:27;;;;;;;;;;;;;;;20.03;45.93;102127.50;2066485;28;2218;-74
2024/03/07 02:14:29;;;;;;;;;;;;;;;20.04;45.99;102129.03;2067530;28;2690;-74
2024/03/07 02:15:31;;;;;;;;;;;;;;;20.04;45.88;102129.03;2068064;28;2134;-75
2024/03/07 02:16:32;;;;;;;;;;;;;;;20.04;45.95;102131.91;2068589;28;2318;-74
2024/03/07 02:17:34;;;;;;;;;;;;;;;20.04;45.91;102117.50;2068304;28;2835;-74
2024/03/07 02:18:37;;;;;;;;;;;;;;;20.05;45.91;102126.88;2068394;28;1869;-74
2024/03/07 02:19:38;;;;;;;;;;;;;;;20.03;45.93;102126.75;2065250;28;2196;-74
2024/03/07 02:20:46;;;;;;;;;;;;;;;20.02;45.88;102120.25;2069109;28;1765;-74
2024/03/07 02:21:48;;;;;;;;;;;;;;;20.01;45.98;102124.47;2067953;28;2547;-74
2024/03/07 02:22:50;;;;;;;;;;;;;;;20.02;45.97;102126.00;2068985;28;1983;-74
2024/03/07 02:23:52;;;;;;;;;;;;;;;20.03;46.02;102121.75;2066392;28;2448;-74
2024/03/07 02:24:54;;;;;;;;;;;;;;;20.01;46.09;102118.72;2068581;28;2339;-73
2024/03/07 02:25:55;;;;;;;;;;;;;;;20.02;46.01;102114.50;2067924;28;1749;-74
2024/03/07 02:26:59;;;;;;;;;;;;;;;20.02;45.93;102111.63;2066548;28;2289;-74
2024/03/07 02:28:00;;;;;;;;;;;;;;;20.02;45.86;102119.47;2066750;28;1760;-74
2024/03/07 02:29:02;;;;;;;;;;;;;;;20.01;45.82;102118.72;2066249;28;2582;-74
2024/03/07 02:30:07;;;;;;;;;;;;;;;20.01;45.88;102118.72;2065853;28;6273;-74
2024/03/07 02:31:09;;;;;;;;;;;;;;;20.00;45.84;102111.50;2066228;28;2146;-74
2024/03/07 02:32:11;;;;;;;;;;;;;;;20.01;45.87;102120.84;2067192;28;2383;-74
2024/03/07 02:33:13;;;;;;;;;;;;;;;20.01;45.82;102118.72;2068153;28;2251;-74
2024/03/07 02:34:14;;;;;;;;;;;;;;;20.00;45.84;102114.34;2065757;28;2449;-73
2024/03/07 02:35:16;;;;;;;;;;;;;;;20.00;45.99;102120.13;2065978;28;2512;-74
2024/03/07 02:36:17;;;;;;;;;;;;;;;20.00;45.92;102116.50;2068327;28;1820;-73
2024/03/07 02:37:18;;;;;;;;;;;;;;;20.00;46.01;102117.25;2068790;28;2135;-74
2024/03/07 02:38:20;;;;;;;;;;;;;;;20.01;45.83;102117.97;2067699;28;2174;-74
2024/03/07 02:39:21;;;;;;;;;;;;;;;20.00;45.95;102120.13;2068266;28;2428;-74
2024/03/07 02:40:23;;;;;;;;;;;;;;;20.00;45.91;102123.00;2067643;28;1680;-74
2024/03/07 02:41:24;;;;;;;;;;;;;;;20.00;45.84;102123.00;2067974;28;1608;-74
2024/03/07 02:42:25;;;;;;;;;;;;;;;19.99;45.77;102114.97;2067517;28;2449;-74
2024/03/07 02:43:27;;;;;;;;;;;;;;;19.99;45.87;102120.72;2067303;28;2520;-74
2024/03/07 02:44:28;;;;;;;;;;;;;;;19.99;45.77;102117.84;2069852;28;2453;-74
2024/03/07 02:45:30;;;;;;;;;;;;;;;19.97;45.97;102124.19;2066876;28;2228;-74
2024/03/07 02:46:32;;;;;;;;;;;;;;;19.97;45.82;102114.81;2068705;28;1889;-74
2024/03/07 02:47:33;;;;;;;;;;;;;;;19.97;45.93;102118.44;2069241;28;2403;-74
2024/03/07 02:48:35;;;;;;;;;;;;;;;19.95;45.97;102115.47;2068203;28;1647;-74
2024/03/07 02:49:36;;;;;;;;;;;;;;;19.95;45.90;102121.22;2066868;28;2248;-74
2024/03/07 02:50:38;;;;;;;;;;;;;;;19.96;45.98;102116.97;2068030;28;2114;-74
2024/03/07 02:51:41;;;;;;;;;;;;;;;19.96;45.93;102116.97;2068340;28;1581;-73
2024/03/07 02:52:43;;;;;;;;;;;;;;;19.95;46.02;102115.47;2067816;28;2576;-74
2024/03/07 02:53:44;;;;;;;;;;;;;;;19.97;45.82;102112.69;2068278;28;2570;-74
2024/03/07 02:54:45;;;;;;;;;;;;;;;19.98;45.98;102119.97;2067897;28;2418;-74
2024/03/07 02:55:47;;;;;;;;;;;;;;;19.95;45.90;102118.34;2068849;28;2189;-74
2024/03/07 02:56:48;;;;;;;;;;;;;;;19.94;45.99;102119.69;2068164;28;1656;-74
2024/03/07 02:57:50;;;;;;;;;;;;;;;19.93;45.91;102123.16;2066903;28;2394;-74
2024/03/07 02:58:51;;;;;;;;;;;;;;;19.93;45.97;102112.44;2067604;28;2563;-74
2024/03/07 02:59:53;;;;;;;;;;;;;;;19.93;45.81;102117.41;2067608;28;2288;-75
2024/03/07 03:00:57;;;;;;;;;;;;;;;19.94;45.88;102116.06;2067678;28;5972;-74
2024/03/07 03:01:58;;;;;;;;;;;;;;;19.95;45.95;102124.09;2068127;28;1634;-74
2024/03/07 03:03:00;;;;;;;;;;;;;;;19.94;45.93;102116.81;2068505;28;1767;-74
2024/03/07 03:04:02;;;;;;;;;;;;;;;19.95;45.81;102121.22;2067717;28;2118;-74
2024/03/07 03:05:06;;;;;;;;;;;;;;;19.93;45.84;102118.19;2064816;28;2705;-74
2024/03/07 03:06:08;;;;;;;;;;;;;;;19.93;45.75;102121.06;2066484;28;2205;-73
2024/03/07 03:07:10;;;;;;;;;;;;;;;19.95;45.88;102124.09;2068112;28;1733;-74
2024/03/07 03:08:13;;;;;;;;;;;;;;;19.93;45.79;102121.06;2066930;28;1705;-74
2024/03/07 03:09:17;;;;;;;;;;;;;;;19.93;45.76;102123.94;2067175;28;1632;-74
2024/03/07 03:10:20;;;;;;;;;;;;;;;19.94;45.77;102122.56;2067621;28;2268;-74
2024/03/07 03:11:22;;;;;;;;;;;;;;;19.93;45.92;102123.94;2068876;28;2457;-74
2024/03/07 03:12:23;;;;;;;;;;;;;;;19.94;45.71;102125.44;2068792;28;2228;-75
2024/03/07 03:13:27;;;;;;;;;;;;;;;19.92;45.76;102116.69;2067953;28;2423;-74
2024/03/07 03:14:28;;;;;;;;;;;;;;;19.93;45.77;102135.44;2068907;28;2555;-74
2024/03/07 03:15:31;;;;;;;;;;;;;;;19.92;45.78;102122.41;2066127;28;2198;-74
2024/03/07 03:16:32;;;;;;;;;;;;;;;19.92;45.73;102119.56;2068410;28;1712;-74
2024/03/07 03:17:48;;;;;;;;;;;;;;;19.92;45.78;102122.41;2066984;28;2539;-74
2024/03/07 03:18:49;;;;;;;;;;;;;;;19.92;45.92;102119.56;2068445;28;2326;-74
2024/03/07 03:19:51;;;;;;;;;;;;;;;19.93;45.91;102114.53;2068116;28;2149;-74
2024/03/07 03:20:53;;;;;;;;;;;;;;;19.91;45.71;102126.69;2071274;28;1673;-74
2024/03/07 03:21:55;;;;;;;;;;;;;;;19.90;45.75;102125.16;2069126;28;1597;-74
2024/03/07 03:22:57;;;;;;;;;;;;;;;19.91;45.68;102126.69;2069569;28;2202;-74
2024/03/07 03:24:18;;;;;;;;;;;;;;;19.90;45.76;102125.16;2068234;28;2415;-74
2024/03/07 03:25:23;;;;;;;;;;;;;;;19.90;45.68;102130.91;2066984;28;2476;-74
2024/03/07 03:26:24;;;;;;;;;;;;;;;19.91;45.79;102120.94;2068957;28;2253;-74
2024/03/07 03:27:26;;;;;;;;;;;;;;;19.89;45.71;102117.91;2068842;28;1877;-74
2024/03/07 03:28:27;;;;;;;;;;;;;;;19.91;45.87;102120.19;2070231;28;1613;-74
2024/03/07 03:29:28;;;;;;;;;;;;;;;19.89;45.68;102126.53;2066476;28;2528;-75
2024/03/07 03:30:30;;;;;;;;;;;;;;;19.88;45.79;102116.38;2066219;28;6146;-74
2024/03/07 03:31:31;;;;;;;;;;;;;;;19.89;45.76;102123.66;2068388;28;1901;-74
2024/03/07 03:32:32;;;;;;;;;;;;;;;19.89;45.69;102123.66;2068953;28;2245;-74
2024/03/07 03:33:35;;;;;;;;;;;;;;;19.88;45.70;102122.13;2068851;28;1637;-74
2024/03/07 03:34:36;;;;;;;;;;;;;;;19.88;45.71;102122.13;2068683;28;2402;-74
2024/03/07 03:35:38;;;;;;;;;;;;;;;19.88;45.80;102122.13;2066472;28;2252;-74
2024/03/07 03:36:40;;;;;;;;;;;;;;;19.87;45.66;102127.16;2068845;28;2181;-74
2024/03/07 03:37:44;;;;;;;;;;;;;;;19.87;45.71;102129.28;2068347;28;2363;-74
2024/03/07 03:38:45;;;;;;;;;;;;;;;19.88;45.75;102122.13;2067345;28;1638;-74
2024/03/07 03:39:47;;;;;;;;;;;;;;;19.87;45.67;102124.25;2066525;28;2543;-74
2024/03/07 03:40:48;;;;;;;;;;;;;;;19.87;45.79;102126.41;2069022;28;2335;-74
2024/03/07 03:41:49;;;;;;;;;;;;;;;19.86;45.65;102124.91;2067156;28;2193;-74
2024/03/07 03:42:51;;;;;;;;;;;;;;;19.87;45.72;102126.41;2068301;28;2730;-74
2024/03/07 03:43:53;;;;;;;;;;;;;;;19.87;45.75;102127.16;2067515;28;1910;-74
2024/03/07 03:44:54;;;;;;;;;;;;;;;19.87;45.64;102127.16;2069181;28;2378;-74
2024/03/07 03:45:56;;;;;;;;;;;;;;;19.87;45.63;102132.16;2068204;28;2254;-74
2024/03/07 03:46:57;;;;;;;;;;;;;;;19.87;45.66;102126.41;2069737;28;2434;-74
2024/03/07 03:47:59;;;;;;;;;;;;;;;19.88;45.69;102133.63;2068827;28;2575;-74
2024/03/07 03:49:00;;;;;;;;;;;;;;;19.86;45.70;102130.66;2069355;28;1779;-74
2024/03/07 03:50:05;;;;;;;;;;;;;;;19.86;45.79;102125.66;2069366;28;1919;-74
2024/03/07 03:51:07;;;;;;;;;;;;;;;19.88;45.61;102128.66;2069670;28;1760;-74
2024/03/07 03:52:09;;;;;;;;;;;;;;;19.88;45.60;102128.66;2069095;28;2460;-73
2024/03/07 03:53:10;;;;;;;;;;;;;;;19.89;45.61;102132.28;2068503;28;2343;-74
2024/03/07 03:54:11;;;;;;;;;;;;;;;19.91;45.47;102129.56;2068558;28;2181;-74
2024/03/07 03:55:13;;;;;;;;;;;;;;;19.92;45.63;102139.69;2068850;28;2269;-74
2024/03/07 03:56:15;;;;;;;;;;;;;;;19.94;45.53;102131.19;2068243;28;1668;-74
2024/03/07 03:57:18;;;;;;;;;;;;;;;19.97;45.54;102141.44;2067877;28;1849;-74
2024/03/07 03:58:19;;;;;;;;;;;;;;;19.97;45.51;102129.19;2068786;28;2157;-74
2024/03/07 03:59:20;;;;;;;;;;;;;;;19.98;45.45;102131.47;2067886;28;2574;-75
2024/03/07 04:00:22;;;;;;;;;;;;;;;19.99;45.71;102132.97;2069271;28;6221;-74
2024/03/07 04:01:25;;;;;;;;;;;;;;;20.00;45.73;102134.50;2067830;28;2012;-74
2024/03/07 04:02:26;;;;;;;;;;;;;;;20.03;45.62;102139.00;2068333;28;2067;-75
2024/03/07 04:03:27;;;;;;;;;;;;;;;20.03;45.59;102133.25;2070055;28;1683;-74
2024/03/07 04:04:29;;;;;;;;;;;;;;;20.04;45.78;102134.78;2068463;28;2256;-74
2024/03/07 04:05:30;;;;;;;;;;;;;;;20.05;45.96;102136.25;2069331;28;2025;-74
2024/03/07 04:06:31;;;;;;;;;;;;;;;20.06;46.04;102143.50;2068896;28;2103;-75
2024/03/07 04:07:33;;;;;;;;;;;;;;;20.06;45.79;102140.63;2067173;28;2170;-74
2024/03/07 04:08:36;;;;;;;;;;;;;;;20.06;45.83;102134.88;2069696;28;2468;-74
2024/03/07 04:09:38;;;;;;;;;;;;;;;20.06;45.75;102137.75;2069039;28;2350;-73
2024/03/07 04:10:39;;;;;;;;;;;;;;;20.06;45.88;102132.00;2069593;28;1600;-73
2024/03/07 04:11:40;;;;;;;;;;;;;;;20.06;45.98;102137.75;2068866;28;1592;-73
2024/03/07 04:12:42;;;;;;;;;;;;;;;20.07;45.89;102138.53;2069687;28;2182;-73
2024/03/07 04:13:45;;;;;;;;;;;;;;;20.07;45.88;102138.53;2068137;28;2136;-73
2024/03/07 04:14:46;;;;;;;;;;;;;;;20.06;45.96;102137.75;2065701;28;2410;-73
2024/03/07 04:15:48;;;;;;;;;;;;;;;20.06;45.91;102140.63;2066864;28;2103;-73
2024/03/07 04:16:49;;;;;;;;;;;;;;;20.05;45.75;102136.25;2069697;28;2440;-72
2024/03/07 04:17:51;;;;;;;;;;;;;;;20.06;45.84;102142.75;2065770;28;2308;-73
2024/03/07 04:18:52;;;;;;;;;;;;;;;20.06;45.90;102137.00;2067588;28;2058;-73
2024/03/07 04:19:54;;;;;;;;;;;;;;;20.08;45.87;102140.03;2068991;28;2410;-73
2024/03/07 04:20:55;;;;;;;;;;;;;;;20.07;45.95;102142.16;2066599;28;2423;-73
2024/03/07 04:21:56;;;;;;;;;;;;;;;20.08;45.98;102145.78;2068994;28;1728;-73
2024/03/07 04:22:58;;;;;;;;;;;;;;;20.07;45.96;102139.28;2066954;28;1703;-73
2024/03/07 04:23:59;;;;;;;;;;;;;;;20.09;46.07;102144.44;2069272;28;2047;-73
2024/03/07 04:25:02;;;;;;;;;;;;;;;20.08;46.04;102137.91;2067609;28;1692;-73
2024/03/07 04:26:03;;;;;;;;;;;;;;;20.11;46.06;102143.78;2067953;28;2404;-73
2024/03/07 04:27:04;;;;;;;;;;;;;;;20.11;46.08;102138.03;2069853;28;2327;-73
2024/03/07 04:28:06;;;;;;;;;;;;;;;20.09;46.08;102136.53;2068306;28;2288;-72
2024/03/07 04:29:08;;;;;;;;;;;;;;;20.13;46.03;102138.19;2069260;28;1762;-73
2024/03/07 04:30:09;;;;;;;;;;;;;;;20.14;46.17;102142.59;2068759;28;6140;-73
2024/03/07 04:31:11;;;;;;;;;;;;;;;20.13;46.38;102141.06;2070686;28;2183;-72
2024/03/07 04:32:12;;;;;;;;;;;;;;;20.15;46.28;102138.31;2069632;28;2343;-73
2024/03/07 04:33:14;;;;;;;;;;;;;;;20.15;46.19;102144.81;2068036;28;2102;-73
2024/03/07 04:34:15;;;;;;;;;;;;;;;20.15;46.04;102141.94;2068886;28;2329;-72
2024/03/07 04:35:17;;;;;;;;;;;;;;;20.16;46.30;102140.59;2068387;28;2076;-73
2024/03/07 04:36:20;;;;;;;;;;;;;;;20.16;46.19;102137.72;2068213;28;2103;-72
2024/03/07 04:37:22;;;;;;;;;;;;;;;20.16;46.20;102139.81;2070047;28;2154;-73
2024/03/07 04:38:23;;;;;;;;;;;;;;;20.16;46.26;102145.56;2067610;28;2172;-73
2024/03/07 04:39:32;;;;;;;;;;;;;;;20.15;46.21;102144.81;2068340;28;2027;-73
2024/03/07 04:40:34;;;;;;;;;;;;;;;20.15;46.10;102141.94;2068501;28;2326;-73
2024/03/07 04:41:36;;;;;;;;;;;;;;;20.16;46.20;102134.06;2068327;28;2294;-72
2024/03/07 04:42:37;;;;;;;;;;;;;;;20.15;46.43;102138.31;2068991;28;2225;-73
2024/03/07 04:43:38;;;;;;;;;;;;;;;20.16;46.35;102134.06;2067887;28;1577;-73
2024/03/07 04:44:40;;;;;;;;;;;;;;;20.15;46.32;102138.31;2066779;28;2067;-73
2024/03/07 04:45:41;;;;;;;;;;;;;;;20.14;46.21;102139.69;2068164;28;2024;-73
2024/03/07 04:46:44;;;;;;;;;;;;;;;20.13;46.16;102129.56;2068514;28;1997;-72
2024/03/07 04:47:46;;;;;;;;;;;;;;;20.14;46.23;102143.31;2068842;28;2091;-73
2024/03/07 04:48:48;;;;;;;;;;;;;;;20.13;46.30;102138.19;2067384;28;1741;-73
2024/03/07 04:49:49;;;;;;;;;;;;;;;20.14;46.40;102143.31;2068740;28;2354;-73
2024/03/07 04:50:51;;;;;;;;;;;;;;;20.14;46.17;102142.59;2067221;28;2386;-73
2024/03/07 04:51:53;;;;;;;;;;;;;;;20.15;46.34;102139.06;2067934;28;2169;-73
2024/03/07 04:52:54;;;;;;;;;;;;;;;20.17;46.13;102141.34;2067884;28;2075;-73
2024/03/07 04:53:56;;;;;;;;;;;;;;;20.17;46.22;102138.47;2067677;28;2300;-73
2024/03/07 04:54:57;;;;;;;;;;;;;;;20.16;46.35;102139.81;2067762;28;1624;-73
2024/03/07 04:55:59;;;;;;;;;;;;;;;20.18;46.34;102148.59;2068957;28;1696;-73
2024/03/07 04:57:00;;;;;;;;;;;;;;;20.18;46.31;102142.84;2069241;28;2434;-72
2024/03/07 04:58:01;;;;;;;;;;;;;;;20.19;46.36;102147.97;2067900;28;2099;-73
2024/03/07 04:59:03;;;;;;;;;;;;;;;20.20;46.11;102145.84;2069271;28;2351;-73
2024/03/07 05:00:05;;;;;;;;;;;;;;;20.21;46.39;102153.13;2068674;28;6309;-72
2024/03/07 05:01:07;;;;;;;;;;;;;;;20.21;46.46;102150.25;2067365;28;2469;-72
2024/03/07 05:02:08;;;;;;;;;;;;;;;20.19;46.28;102150.84;2067523;28;2378;-73
2024/03/07 05:03:11;;;;;;;;;;;;;;;20.21;46.22;102147.38;2068376;28;2095;-73
2024/03/07 05:04:13;;;;;;;;;;;;;;;20.21;46.31;102150.25;2068625;28;2031;-73
2024/03/07 05:05:14;;;;;;;;;;;;;;;20.20;46.48;102151.59;2067680;28;2005;-73
2024/03/07 05:06:16;;;;;;;;;;;;;;;20.21;46.37;102147.38;2069344;28;1569;-73
2024/03/07 05:07:18;;;;;;;;;;;;;;;20.21;46.34;102153.88;2067513;28;2296;-73
2024/03/07 05:08:20;;;;;;;;;;;;;;;20.22;46.31;102149.59;2069068;28;2013;-73
2024/03/07 05:09:22;;;;;;;;;;;;;;;20.21;46.52;102156.75;2067552;28;2378;-73
2024/03/07 05:10:24;;;;;;;;;;;;;;;20.23;46.26;102150.38;2069529;28;2035;-73
2024/03/07 05:11:26;;;;;;;;;;;;;;;20.22;46.31;102155.38;2068224;28;2084;-73
2024/03/07 05:12:27;;;;;;;;;;;;;;;20.22;46.31;102151.75;2067817;28;2023;-73
2024/03/07 05:13:29;;;;;;;;;;;;;;;20.21;46.32;102156.75;2067867;28;2260;-73
2024/03/07 05:14:30;;;;;;;;;;;;;;;20.22;46.47;102154.63;2068310;28;2395;-73
2024/03/07 05:15:31;;;;;;;;;;;;;;;20.22;46.25;102157.50;2064949;28;2068;-73
2024/03/07 05:16:33;;;;;;;;;;;;;;;20.22;46.44;102161.13;2066777;28;2318;-73
2024/03/07 05:17:36;;;;;;;;;;;;;;;20.22;46.44;102160.38;2069375;28;2153;-73
2024/03/07 05:18:37;;;;;;;;;;;;;;;20.21;46.37;102153.13;2068911;28;1565;-73
2024/03/07 05:19:38;;;;;;;;;;;;;;;20.21;46.41;102164.63;2068912;28;2244;-73
2024/03/07 05:20:40;;;;;;;;;;;;;;;20.21;46.51;102164.63;2068526;28;1653;-73
2024/03/07 05:21:41;;;;;;;;;;;;;;;20.21;46.36;102165.38;2068955;28;2449;-74
2024/03/07 05:22:52;;;;;;;;;;;;;;;20.18;46.48;102165.84;2067373;28;2028;-72